createdAt,value
2022-10-01T00:01:37.918Z,0
2022-10-01T00:03:17.673Z,0
2022-10-01T00:04:57.461Z,0
2022-10-01T00:06:37.226Z,0
2022-10-01T00:08:16.992Z,0
2022-10-01T00:09:56.760Z,0
2022-10-01T00:11:36.524Z,0
2022-10-01T00:13:16.286Z,0
2022-10-01T00:14:56.060Z,0
2022-10-01T00:16:35.816Z,0
2022-10-01T00:18:15.599Z,0
2022-10-01T00:19:55.377Z,0
2022-10-01T00:21:35.133Z,0
2022-10-01T00:23:14.890Z,0
2022-10-01T00:24:54.652Z,0
2022-10-01T00:26:34.421Z,0
2022-10-01T00:28:14.194Z,0
2022-10-01T00:29:53.960Z,0
2022-10-01T00:31:33.727Z,0
2022-10-01T00:33:13.493Z,0
2022-10-01T00:34:53.262Z,0
2022-10-01T00:36:33.030Z,0
2022-10-01T00:38:12.790Z,0
2022-10-01T00:39:52.558Z,0
2022-10-01T00:41:32.326Z,0
2022-10-01T00:43:12.095Z,0
2022-10-01T00:44:51.876Z,0
2022-10-01T00:46:31.639Z,0
2022-10-01T00:48:11.408Z,0
2022-10-01T00:49:51.163Z,0
2022-10-01T00:51:30.942Z,0
2022-10-01T00:53:10.704Z,0
2022-10-01T00:54:50.475Z,0
2022-10-01T00:56:30.240Z,0
2022-10-01T00:58:10.013Z,0
2022-10-01T00:59:49.768Z,0
2022-10-01T01:01:29.609Z,0
2022-10-01T01:03:09.298Z,0
2022-10-01T01:04:49.084Z,0
2022-10-01T01:06:28.843Z,0
2022-10-01T01:08:08.612Z,0
2022-10-01T01:09:48.374Z,0
2022-10-01T01:11:28.146Z,0
2022-10-01T01:14:47.682Z,0
2022-10-01T01:16:27.441Z,0
2022-10-01T01:18:07.215Z,0
2022-10-01T01:19:46.988Z,0
2022-10-01T01:21:26.752Z,0
2022-10-01T01:23:06.522Z,0
2022-10-01T01:24:46.295Z,0
2022-10-01T01:26:26.047Z,0
2022-10-01T01:28:05.824Z,0
2022-10-01T01:29:45.584Z,0
2022-10-01T01:31:25.354Z,0
2022-10-01T01:33:05.119Z,0
2022-10-01T01:34:44.875Z,0
2022-10-01T01:36:24.662Z,0
2022-10-01T01:39:44.183Z,0
2022-10-01T01:41:23.948Z,0
2022-10-01T01:43:03.722Z,0
2022-10-01T01:44:43.490Z,0
2022-10-01T01:46:23.259Z,0
2022-10-01T01:48:03.024Z,0
2022-10-01T01:49:42.782Z,0
2022-10-01T01:51:22.563Z,0
2022-10-01T01:53:02.345Z,0
2022-10-01T01:54:42.105Z,0
2022-10-01T01:56:21.856Z,0
2022-10-01T01:58:01.623Z,0
2022-10-01T01:59:41.402Z,0
2022-10-01T02:01:21.172Z,0
2022-10-01T02:03:00.925Z,0
2022-10-01T02:04:40.696Z,0
2022-10-01T02:06:20.465Z,0
2022-10-01T02:08:00.233Z,0
2022-10-01T02:09:39.993Z,0
2022-10-01T02:11:19.775Z,0
2022-10-01T02:12:59.535Z,0
2022-10-01T02:14:39.301Z,0
2022-10-01T02:16:19.063Z,0
2022-10-01T02:17:58.840Z,0
2022-10-01T02:19:38.609Z,0
2022-10-01T02:21:18.369Z,0
2022-10-01T02:22:58.150Z,0
2022-10-01T02:24:37.912Z,0
2022-10-01T02:26:17.683Z,0
2022-10-01T02:27:57.445Z,0
2022-10-01T02:29:37.204Z,0
2022-10-01T02:31:16.970Z,0
2022-10-01T02:32:56.738Z,0
2022-10-01T02:34:36.516Z,0
2022-10-01T02:36:16.279Z,0
2022-10-01T02:37:56.047Z,0
2022-10-01T02:39:35.807Z,0
2022-10-01T02:41:15.579Z,0
2022-10-01T02:42:55.342Z,0
2022-10-01T02:44:35.114Z,0
2022-10-01T02:46:14.888Z,0
2022-10-01T02:47:54.657Z,0
2022-10-01T02:49:34.408Z,0
2022-10-01T02:52:53.975Z,0
2022-10-01T02:54:33.723Z,0
2022-10-01T02:56:13.506Z,0
2022-10-01T02:57:53.256Z,0
2022-10-01T02:59:33.013Z,0
2022-10-01T03:01:12.796Z,0
2022-10-01T03:02:52.555Z,0
2022-10-01T03:04:32.358Z,0
2022-10-01T03:06:12.119Z,0
2022-10-01T03:07:51.861Z,0
2022-10-01T03:09:31.616Z,0
2022-10-01T03:11:11.394Z,0
2022-10-01T03:12:51.169Z,0
2022-10-01T03:14:30.927Z,0
2022-10-01T03:16:10.695Z,0
2022-10-01T03:17:50.458Z,0
2022-10-01T03:19:30.235Z,0
2022-10-01T03:21:09.992Z,0
2022-10-01T03:22:49.754Z,0
2022-10-01T03:24:29.520Z,0
2022-10-01T03:26:09.287Z,0
2022-10-01T03:27:49.059Z,0
2022-10-01T03:31:08.591Z,0
2022-10-01T03:32:48.355Z,0
2022-10-01T03:34:28.128Z,0
2022-10-01T03:36:07.897Z,0
2022-10-01T03:37:47.680Z,0
2022-10-01T03:39:27.443Z,0
2022-10-01T03:41:07.205Z,0
2022-10-01T03:42:46.975Z,0
2022-10-01T03:44:26.727Z,0
2022-10-01T03:46:06.500Z,0
2022-10-01T03:47:46.276Z,0
2022-10-01T03:49:26.036Z,0
2022-10-01T03:51:05.831Z,0
2022-10-01T03:52:45.571Z,0
2022-10-01T03:54:25.344Z,0
2022-10-01T03:56:05.102Z,0
2022-10-01T03:57:44.864Z,0
2022-10-01T03:59:24.632Z,0
2022-10-01T04:01:04.391Z,0
2022-10-01T04:02:44.166Z,0
2022-10-01T04:04:23.922Z,0
2022-10-01T04:06:03.692Z,0
2022-10-01T04:07:43.443Z,0
2022-10-01T04:09:23.219Z,0
2022-10-01T04:11:02.993Z,0
2022-10-01T04:12:42.735Z,0
2022-10-01T04:14:22.514Z,0
2022-10-01T04:16:02.270Z,0
2022-10-01T04:17:42.039Z,0
2022-10-01T04:19:21.818Z,0
2022-10-01T04:21:01.563Z,0
2022-10-01T04:22:41.334Z,0
2022-10-01T04:24:21.085Z,0
2022-10-01T04:26:00.865Z,0
2022-10-01T04:27:40.618Z,0
2022-10-01T04:29:20.394Z,0
2022-10-01T04:31:00.148Z,0
2022-10-01T04:32:39.904Z,0
2022-10-01T04:34:19.675Z,0
2022-10-01T04:35:59.441Z,0
2022-10-01T04:37:39.197Z,0
2022-10-01T04:39:18.972Z,0
2022-10-01T04:40:58.743Z,0
2022-10-01T04:42:38.500Z,0
2022-10-01T04:44:18.260Z,0
2022-10-01T04:45:58.036Z,0
2022-10-01T04:47:37.802Z,0
2022-10-01T04:49:17.553Z,0
2022-10-01T04:50:57.315Z,0
2022-10-01T04:52:37.078Z,0
2022-10-01T04:54:16.843Z,0
2022-10-01T04:55:56.605Z,0
2022-10-01T04:57:36.382Z,0.08
2022-10-01T04:59:16.146Z,0
2022-10-01T05:00:55.912Z,0.01
2022-10-01T05:02:35.666Z,0.01
2022-10-01T05:04:15.437Z,0.01
2022-10-01T05:05:55.207Z,0.02
2022-10-01T05:07:34.962Z,0
2022-10-01T05:09:14.738Z,0.01
2022-10-01T05:10:54.503Z,0
2022-10-01T05:12:34.249Z,0.01
2022-10-01T05:14:14.043Z,0
2022-10-01T05:15:53.785Z,0
2022-10-01T05:17:33.555Z,0.04
2022-10-01T05:19:13.316Z,0
2022-10-01T05:20:53.085Z,0.01
2022-10-01T05:22:32.842Z,0
2022-10-01T05:24:12.616Z,0.05
2022-10-01T05:25:52.381Z,0.03
2022-10-01T05:27:32.146Z,0
2022-10-01T05:29:11.897Z,0.06
2022-10-01T05:30:51.674Z,0
2022-10-01T05:32:31.435Z,0.08
2022-10-01T05:34:11.189Z,0.02
2022-10-01T05:35:50.965Z,0.04
2022-10-01T05:37:30.758Z,0.07
2022-10-01T05:39:10.477Z,0.06
2022-10-01T05:40:50.255Z,0.06
2022-10-01T05:42:30.013Z,0.03
2022-10-01T05:44:09.786Z,0.03
2022-10-01T05:45:49.548Z,0.13
2022-10-01T05:47:29.312Z,0.18
2022-10-01T05:49:09.096Z,0.24
2022-10-01T05:50:48.856Z,0.23
2022-10-01T05:52:28.620Z,0.22
2022-10-01T05:54:08.391Z,0.29
2022-10-01T05:55:48.173Z,0.36
2022-10-01T05:57:27.935Z,0.47
2022-10-01T05:59:07.705Z,0.45
2022-10-01T06:00:47.476Z,0.54
2022-10-01T06:02:27.247Z,0.54
2022-10-01T06:04:07.031Z,0.55
2022-10-01T06:05:46.783Z,0.49
2022-10-01T06:07:26.568Z,0.52
2022-10-01T06:09:06.335Z,0.52
2022-10-01T06:10:46.103Z,0.63
2022-10-01T06:12:25.871Z,0.68
2022-10-01T06:14:05.646Z,0.72
2022-10-01T06:15:45.409Z,0.73
2022-10-01T06:17:25.174Z,0.78
2022-10-01T06:19:04.944Z,0.8
2022-10-01T06:20:44.715Z,0.8
2022-10-01T06:22:24.495Z,0.81
2022-10-01T06:24:04.258Z,0.8
2022-10-01T06:25:44.021Z,0.78
2022-10-01T06:27:23.789Z,0.76
2022-10-01T06:29:03.572Z,0.73
2022-10-01T06:30:43.342Z,0.74
2022-10-01T06:32:23.110Z,0.75
2022-10-01T06:34:02.873Z,0.73
2022-10-01T06:35:42.644Z,0.72
2022-10-01T06:37:22.422Z,0.74
2022-10-01T06:39:02.185Z,0.73
2022-10-01T06:40:41.958Z,0.77
2022-10-01T06:42:21.737Z,0.77
2022-10-01T06:44:01.487Z,0.81
2022-10-01T06:45:41.271Z,0.82
2022-10-01T06:47:21.052Z,0.82
2022-10-01T06:49:00.811Z,1.17
2022-10-01T06:50:40.579Z,1.93
2022-10-01T06:52:20.361Z,1.91
2022-10-01T06:54:00.124Z,1.88
2022-10-01T06:55:39.887Z,1.82
2022-10-01T06:57:19.668Z,1.75
2022-10-01T06:58:59.453Z,1.73
2022-10-01T07:00:39.199Z,1.72
2022-10-01T07:02:18.969Z,1.73
2022-10-01T07:03:58.748Z,1.7
2022-10-01T07:05:38.526Z,1.64
2022-10-01T07:07:18.291Z,1.56
2022-10-01T07:08:58.067Z,1.5
2022-10-01T07:10:37.834Z,1.46
2022-10-01T07:12:17.597Z,1.42
2022-10-01T07:13:57.366Z,1.4
2022-10-01T07:15:37.137Z,1.42
2022-10-01T07:17:16.914Z,1.39
2022-10-01T07:18:56.679Z,1.39
2022-10-01T07:20:36.469Z,1.42
2022-10-01T07:22:16.221Z,1.47
2022-10-01T07:23:55.980Z,1.43
2022-10-01T07:25:35.765Z,1.41
2022-10-01T07:27:15.535Z,1.4
2022-10-01T07:28:55.367Z,1.38
2022-10-01T07:30:35.077Z,1.4
2022-10-01T07:32:14.843Z,1.41
2022-10-01T07:33:54.617Z,1.54
2022-10-01T07:35:34.384Z,1.64
2022-10-01T07:37:14.147Z,1.68
2022-10-01T07:38:53.912Z,1.66
2022-10-01T07:40:33.688Z,1.65
2022-10-01T07:42:13.461Z,1.65
2022-10-01T07:43:53.224Z,1.62
2022-10-01T07:45:32.993Z,1.63
2022-10-01T07:47:12.779Z,1.62
2022-10-01T07:48:52.541Z,1.62
2022-10-01T07:50:32.320Z,1.62
2022-10-01T07:52:12.080Z,1.65
2022-10-01T07:53:51.853Z,1.62
2022-10-01T07:55:31.630Z,1.62
2022-10-01T07:57:11.397Z,1.6
2022-10-01T07:58:51.173Z,1.6
2022-10-01T08:00:30.929Z,1.6
2022-10-01T08:02:10.708Z,1.58
2022-10-01T08:03:50.482Z,1.59
2022-10-01T08:05:30.247Z,1.59
2022-10-01T08:07:10.028Z,1.56
2022-10-01T08:08:49.786Z,1.57
2022-10-01T08:10:29.555Z,1.58
2022-10-01T08:12:09.326Z,1.58
2022-10-01T08:13:49.111Z,1.55
2022-10-01T08:15:28.877Z,1.55
2022-10-01T08:17:08.629Z,1.55
2022-10-01T08:18:48.403Z,1.56
2022-10-01T08:20:28.180Z,1.59
2022-10-01T08:22:07.954Z,1.53
2022-10-01T08:23:47.739Z,1.56
2022-10-01T08:25:27.497Z,1.55
2022-10-01T08:27:07.262Z,1.53
2022-10-01T08:28:47.026Z,1.53
2022-10-01T08:30:26.800Z,1.51
2022-10-01T08:32:06.563Z,1.52
2022-10-01T08:33:46.341Z,1.53
2022-10-01T08:35:26.104Z,1.52
2022-10-01T08:37:05.882Z,1.55
2022-10-01T08:38:45.660Z,1.5
2022-10-01T08:40:25.425Z,1.52
2022-10-01T08:42:05.197Z,1.53
2022-10-01T08:43:44.959Z,1.52
2022-10-01T08:45:24.764Z,1.52
2022-10-01T08:47:04.495Z,1.51
2022-10-01T08:48:44.289Z,1.5
2022-10-01T08:50:24.038Z,1.49
2022-10-01T08:52:03.819Z,1.49
2022-10-01T08:53:43.590Z,1.48
2022-10-01T08:55:23.346Z,1.49
2022-10-01T08:57:03.128Z,1.49
2022-10-01T08:58:42.901Z,1.49
2022-10-01T09:00:22.664Z,1.5
2022-10-01T09:02:02.438Z,1.48
2022-10-01T09:03:42.196Z,1.49
2022-10-01T09:05:21.975Z,1.49
2022-10-01T09:07:01.753Z,1.47
2022-10-01T09:08:41.522Z,1.47
2022-10-01T09:10:21.284Z,1.48
2022-10-01T09:12:01.067Z,1.46
2022-10-01T09:13:40.824Z,1.47
2022-10-01T09:15:20.600Z,1.46
2022-10-01T09:17:00.375Z,1.47
2022-10-01T09:18:40.127Z,1.45
2022-10-01T09:20:19.900Z,1.46
2022-10-01T09:21:59.677Z,1.47
2022-10-01T09:23:39.438Z,1.46
2022-10-01T09:25:19.220Z,1.46
2022-10-01T09:26:58.982Z,1.44
2022-10-01T09:28:38.742Z,1.41
2022-10-01T09:30:18.527Z,1.45
2022-10-01T09:31:58.282Z,1.43
2022-10-01T09:33:38.068Z,1.44
2022-10-01T09:35:17.826Z,1.43
2022-10-01T09:36:57.598Z,1.42
2022-10-01T09:38:37.368Z,1.44
2022-10-01T09:40:17.142Z,1.43
2022-10-01T09:41:56.931Z,1.41
2022-10-01T09:43:36.699Z,1.42
2022-10-01T09:45:16.451Z,1.43
2022-10-01T09:46:56.216Z,1.44
2022-10-01T09:48:35.997Z,1.43
2022-10-01T09:50:15.765Z,1.41
2022-10-01T09:53:35.304Z,1.41
2022-10-01T09:55:15.072Z,1.42
2022-10-01T09:56:54.837Z,1.43
2022-10-01T09:58:34.620Z,1.43
2022-10-01T10:00:14.393Z,1.41
2022-10-01T10:01:54.163Z,1.37
2022-10-01T10:03:33.932Z,1.38
2022-10-01T10:05:13.803Z,1.41
2022-10-01T10:06:53.601Z,1.39
2022-10-01T10:08:33.307Z,1.43
2022-10-01T10:10:13.026Z,1.37
2022-10-01T10:11:52.913Z,1.41
2022-10-01T10:13:32.699Z,1.37
2022-10-01T10:15:12.392Z,1.38
2022-10-01T10:16:52.240Z,1.39
2022-10-01T10:18:32.010Z,1.38
2022-10-01T10:20:11.808Z,1.37
2022-10-01T10:21:51.544Z,1.38
2022-10-01T10:23:31.307Z,1.39
2022-10-01T10:25:10.948Z,1.37
2022-10-01T10:26:50.707Z,1.38
2022-10-01T10:28:30.605Z,1.39
2022-10-01T10:30:10.414Z,1.39
2022-10-01T10:31:50.019Z,1.34
2022-10-01T10:33:29.801Z,1.3
2022-10-01T10:35:09.718Z,0.96
2022-10-01T10:36:49.472Z,0
2022-10-01T10:38:29.252Z,0
2022-10-01T10:40:08.999Z,0
2022-10-01T10:43:28.568Z,0
2022-10-01T10:45:08.333Z,0
2022-10-01T10:46:48.023Z,0
2022-10-01T10:48:27.843Z,0.12
2022-10-01T10:50:07.510Z,0.27
2022-10-01T10:51:47.425Z,0.31
2022-10-01T10:53:27.022Z,0.32
2022-10-01T10:55:06.783Z,0.33
2022-10-01T10:56:46.558Z,0.31
2022-10-01T10:58:26.358Z,0.32
2022-10-01T11:00:06.142Z,0.34
2022-10-01T11:01:45.880Z,0.34
2022-10-01T11:03:25.660Z,0.36
2022-10-01T11:05:05.451Z,0.38
2022-10-01T11:06:45.269Z,0.38
2022-10-01T11:08:24.942Z,0.41
2022-10-01T11:10:04.736Z,0.39
2022-10-01T11:11:44.485Z,0.39
2022-10-01T11:13:24.344Z,0.34
2022-10-01T11:15:04.085Z,0.36
2022-10-01T11:18:23.620Z,0.35
2022-10-01T11:20:03.356Z,0.37
2022-10-01T11:21:43.103Z,0.36
2022-10-01T11:23:22.884Z,0.36
2022-10-01T11:25:02.660Z,0.38
2022-10-01T11:26:42.470Z,0.37
2022-10-01T11:30:01.989Z,0.3
2022-10-01T11:33:21.546Z,0.34
2022-10-01T11:36:41.050Z,0.36
2022-10-01T11:40:00.615Z,0.37
2022-10-01T11:43:20.133Z,0.36
2022-10-01T11:46:39.691Z,0.38
2022-10-01T11:48:19.431Z,0.38
2022-10-01T11:49:59.201Z,0.35
2022-10-01T11:51:39.061Z,0.32
2022-10-01T11:53:18.759Z,0.37
2022-10-01T11:54:58.515Z,0.32
2022-10-01T11:56:38.294Z,0.33
2022-10-01T11:58:18.055Z,0.3
2022-10-01T11:59:57.827Z,0.3
2022-10-01T12:01:37.603Z,0.32
2022-10-01T12:03:17.363Z,0.36
2022-10-01T12:04:57.147Z,0.33
2022-10-01T12:06:36.959Z,0.32
2022-10-01T12:08:16.683Z,0.44
2022-10-01T12:09:56.451Z,0.49
2022-10-01T12:13:15.995Z,0.35
2022-10-01T12:14:55.765Z,0.37
2022-10-01T12:16:35.530Z,0.38
2022-10-01T12:18:15.305Z,0.36
2022-10-01T12:19:55.146Z,0.36
2022-10-01T12:21:34.860Z,0.35
2022-10-01T12:23:14.614Z,0.4
2022-10-01T12:24:54.392Z,0.37
2022-10-01T12:26:34.164Z,0.33
2022-10-01T12:29:53.707Z,0.29
2022-10-01T12:31:33.462Z,0.29
2022-10-01T12:33:13.255Z,0.35
2022-10-01T12:34:53.041Z,0.42
2022-10-01T12:36:32.772Z,0.42
2022-10-01T12:38:12.564Z,0.37
2022-10-01T12:39:52.323Z,0.35
2022-10-01T12:41:32.084Z,0.35
2022-10-01T12:43:11.908Z,0.34
2022-10-01T12:44:51.621Z,0.37
2022-10-01T12:46:31.419Z,0.32
2022-10-01T12:48:11.161Z,0.34
2022-10-01T12:49:50.934Z,0.33
2022-10-01T12:51:30.755Z,0.33
2022-10-01T12:53:10.506Z,0.34
2022-10-01T12:54:50.248Z,0.34
2022-10-01T12:56:30.114Z,0.34
2022-10-01T12:58:09.804Z,0.31
2022-10-01T12:59:49.568Z,0.29
2022-10-01T13:01:29.332Z,0.39
2022-10-01T13:03:09.098Z,0.35
2022-10-01T13:04:48.867Z,0.39
2022-10-01T13:06:28.637Z,0.39
2022-10-01T13:08:08.429Z,0.36
2022-10-01T13:09:48.182Z,0.31
2022-10-01T13:11:27.952Z,0.36
2022-10-01T13:13:07.720Z,0.39
2022-10-01T13:14:47.497Z,0.37
2022-10-01T13:16:27.449Z,0.39
2022-10-01T13:18:07.048Z,0.37
2022-10-01T13:19:46.809Z,0.36
2022-10-01T13:21:26.659Z,0.34
2022-10-01T13:23:06.448Z,0.37
2022-10-01T13:24:46.111Z,0.35
2022-10-01T13:26:25.888Z,0.35
2022-10-01T13:28:05.668Z,0.36
2022-10-01T13:29:45.428Z,0.36
2022-10-01T13:31:25.198Z,0.36
2022-10-01T13:33:04.980Z,0.36
2022-10-01T13:34:44.742Z,0.37
2022-10-01T13:36:24.509Z,0.36
2022-10-01T13:38:04.287Z,0.34
2022-10-01T13:39:44.076Z,0.34
2022-10-01T13:41:23.818Z,0.38
2022-10-01T13:43:03.587Z,0.35
2022-10-01T13:44:43.371Z,0.37
2022-10-01T13:46:23.178Z,0.34
2022-10-01T13:48:02.930Z,0.36
2022-10-01T13:49:42.670Z,0.35
2022-10-01T13:53:02.220Z,0.34
2022-10-01T13:54:42.005Z,0.33
2022-10-01T13:56:21.767Z,0.34
2022-10-01T13:59:41.292Z,0.33
2022-10-01T14:01:21.069Z,0.33
2022-10-01T14:03:00.826Z,0.36
2022-10-01T14:04:40.607Z,0.32
2022-10-01T14:08:00.133Z,0.3
2022-10-01T14:09:39.982Z,0.28
2022-10-01T14:11:19.666Z,0.33
2022-10-01T14:12:59.493Z,0.32
2022-10-01T14:14:39.209Z,0.35
2022-10-01T14:16:18.987Z,0.34
2022-10-01T14:17:58.741Z,0.35
2022-10-01T14:19:38.544Z,0.33
2022-10-01T14:21:18.303Z,0.35
2022-10-01T14:22:58.049Z,0.32
2022-10-01T14:24:37.819Z,0.36
2022-10-01T14:26:17.593Z,0.4
2022-10-01T14:27:57.352Z,0.39
2022-10-01T14:29:37.115Z,0.35
2022-10-01T14:31:16.883Z,0.32
2022-10-01T14:32:56.662Z,0.3
2022-10-01T14:34:36.420Z,0.34
2022-10-01T14:36:16.192Z,0.4
2022-10-01T14:37:55.958Z,0.4
2022-10-01T14:39:35.727Z,0.35
2022-10-01T14:41:15.524Z,0.36
2022-10-01T14:42:55.270Z,0.38
2022-10-01T14:44:35.038Z,0.34
2022-10-01T14:46:14.821Z,0.35
2022-10-01T14:47:54.579Z,0.3
2022-10-01T14:49:34.352Z,0.33
2022-10-01T14:51:14.106Z,0.31
2022-10-01T14:56:13.418Z,0.35
2022-10-01T14:57:53.222Z,0.34
2022-10-01T14:59:32.999Z,0.38
2022-10-01T15:01:12.714Z,0.35
2022-10-01T15:02:52.517Z,0.31
2022-10-01T15:04:32.241Z,0.28
2022-10-01T15:06:12.029Z,0.32
2022-10-01T15:07:51.802Z,0.33
2022-10-01T15:09:31.560Z,0.32
2022-10-01T15:11:11.333Z,0.34
2022-10-01T15:12:51.093Z,0.36
2022-10-01T15:14:30.872Z,0.41
2022-10-01T15:16:10.707Z,0.39
2022-10-01T15:17:50.440Z,0.37
2022-10-01T15:19:30.177Z,0.35
2022-10-01T15:21:09.944Z,0.37
2022-10-01T15:22:49.768Z,0.36
2022-10-01T15:24:29.490Z,0.3
2022-10-01T15:27:49.028Z,0.29
2022-10-01T15:29:28.852Z,0.36
2022-10-01T15:31:08.561Z,0.37
2022-10-01T15:32:48.370Z,0.41
2022-10-01T15:34:28.116Z,0.33
2022-10-01T15:36:07.870Z,0.32
2022-10-01T15:37:47.653Z,0.34
2022-10-01T15:39:27.433Z,0.34
2022-10-01T15:41:07.199Z,0.35
2022-10-01T15:42:47.037Z,0.34
2022-10-01T15:44:26.744Z,0.32
2022-10-01T15:46:06.492Z,0.3
2022-10-01T15:47:46.266Z,0.3
2022-10-01T15:49:26.091Z,0.29
2022-10-01T15:51:05.846Z,0.27
2022-10-01T15:52:45.583Z,0.34
2022-10-01T15:54:25.367Z,0.34
2022-10-01T15:56:05.158Z,0.33
2022-10-01T15:57:44.909Z,0.35
2022-10-01T15:59:24.704Z,0.35
2022-10-01T16:01:04.424Z,0.35
2022-10-01T16:02:44.215Z,0.31
2022-10-01T16:04:23.983Z,0.35
2022-10-01T16:06:03.750Z,0.35
2022-10-01T16:07:43.511Z,0.3
2022-10-01T16:09:23.309Z,0.28
2022-10-01T16:11:03.045Z,0.29
2022-10-01T16:12:42.846Z,0.29
2022-10-01T16:14:22.587Z,0.27
2022-10-01T16:16:02.361Z,0.23
2022-10-01T16:17:42.144Z,0.17
2022-10-01T16:19:21.905Z,0.1
2022-10-01T16:21:01.708Z,0.05
2022-10-01T16:22:41.466Z,0.05
2022-10-01T16:24:21.214Z,0.05
2022-10-01T16:26:00.980Z,0.01
2022-10-01T16:27:40.749Z,0
2022-10-01T16:29:20.532Z,0
2022-10-01T16:31:00.282Z,0
2022-10-01T16:32:40.093Z,0
2022-10-01T16:34:19.849Z,0
2022-10-01T16:35:59.583Z,0
2022-10-01T16:37:39.381Z,0
2022-10-01T16:39:19.120Z,0
2022-10-01T16:40:58.901Z,0
2022-10-01T16:42:38.666Z,0
2022-10-01T16:44:18.423Z,0
2022-10-01T16:45:58.197Z,0
2022-10-01T16:47:38.018Z,0
2022-10-01T16:49:17.770Z,0
2022-10-01T16:50:57.508Z,0
2022-10-01T16:52:37.273Z,0
2022-10-01T16:54:17.041Z,0
2022-10-01T16:55:56.817Z,0
2022-10-01T16:57:36.581Z,0
2022-10-01T16:59:16.373Z,0
2022-10-01T17:00:56.098Z,0
2022-10-01T17:02:35.863Z,0
2022-10-01T17:04:15.631Z,0
2022-10-01T17:05:55.406Z,0
2022-10-01T17:07:35.167Z,0
2022-10-01T17:09:14.933Z,0
2022-10-01T17:10:54.702Z,0
2022-10-01T17:12:34.488Z,0
2022-10-01T17:14:14.339Z,0
2022-10-01T17:15:54.014Z,0
2022-10-01T17:17:33.769Z,0
2022-10-01T17:19:13.539Z,0
2022-10-01T17:20:53.352Z,0
2022-10-01T17:22:33.094Z,0
2022-10-01T17:24:12.927Z,0
2022-10-01T17:25:52.628Z,0
2022-10-01T17:29:12.148Z,0
2022-10-01T17:30:51.947Z,0
2022-10-01T17:32:31.708Z,0
2022-10-01T17:34:11.456Z,0
2022-10-01T17:35:51.245Z,0
2022-10-01T17:37:31.008Z,0
2022-10-01T17:39:10.760Z,0
2022-10-01T17:40:50.547Z,0
2022-10-01T17:42:30.296Z,0
2022-10-01T17:44:10.069Z,0
2022-10-01T17:45:49.829Z,0
2022-10-01T17:47:29.607Z,0
2022-10-01T17:49:09.364Z,0
2022-10-01T17:50:49.121Z,0
2022-10-01T17:52:28.907Z,0
2022-10-01T17:54:08.666Z,0
2022-10-01T17:55:48.446Z,0
2022-10-01T17:57:28.212Z,0
2022-10-01T17:59:07.967Z,0
2022-10-01T18:00:47.733Z,0
2022-10-01T18:02:27.491Z,0
2022-10-01T18:04:07.263Z,0
2022-10-01T18:05:47.033Z,0
2022-10-01T18:07:26.798Z,0
2022-10-01T18:09:06.579Z,0
2022-10-01T18:10:46.334Z,0
2022-10-01T18:12:26.109Z,0
2022-10-01T18:14:06.012Z,0
2022-10-01T18:15:45.835Z,0
2022-10-01T18:17:25.552Z,0
2022-10-01T18:19:05.328Z,0
2022-10-01T18:20:45.073Z,0
2022-10-01T18:22:24.866Z,0
2022-10-01T18:24:04.600Z,0
2022-10-01T18:25:44.242Z,0
2022-10-01T18:27:24.128Z,0
2022-10-01T18:29:03.793Z,0
2022-10-01T18:30:43.680Z,0
2022-10-01T18:32:23.422Z,0
2022-10-01T18:34:03.087Z,0
2022-10-01T18:35:42.999Z,0
2022-10-01T18:37:22.607Z,0
2022-10-01T18:39:02.381Z,0
2022-10-01T18:40:42.173Z,0
2022-10-01T18:42:21.921Z,0
2022-10-01T18:44:01.702Z,0
2022-10-01T18:45:41.441Z,0
2022-10-01T18:47:21.248Z,0
2022-10-01T18:49:00.995Z,0
2022-10-01T18:50:40.765Z,0
2022-10-01T18:52:20.519Z,0
2022-10-01T18:54:00.295Z,0
2022-10-01T18:55:40.046Z,0
2022-10-01T18:57:19.814Z,0
2022-10-01T18:58:59.579Z,0
2022-10-01T19:00:39.355Z,0
2022-10-01T19:02:19.166Z,0
2022-10-01T19:03:58.893Z,0
2022-10-01T19:05:38.690Z,0
2022-10-01T19:07:18.429Z,0
2022-10-01T19:08:58.212Z,0
2022-10-01T19:10:37.957Z,0
2022-10-01T19:12:17.725Z,0
2022-10-01T19:13:57.488Z,0
2022-10-01T19:15:37.267Z,0
2022-10-01T19:17:17.036Z,0
2022-10-01T19:18:56.803Z,0
2022-10-01T19:20:36.556Z,0
2022-10-01T19:22:16.349Z,0
2022-10-01T19:23:56.119Z,0
2022-10-01T19:25:35.866Z,0
2022-10-01T19:27:15.628Z,0
2022-10-01T19:28:55.397Z,0
2022-10-01T19:30:35.182Z,0
2022-10-01T19:32:14.941Z,0
2022-10-01T19:33:54.707Z,0
2022-10-01T19:35:34.475Z,0
2022-10-01T19:37:14.241Z,0
2022-10-01T19:38:54.002Z,0
2022-10-01T19:40:33.779Z,0
2022-10-01T19:42:13.544Z,0
2022-10-01T19:43:53.308Z,0
2022-10-01T19:45:33.081Z,0
2022-10-01T19:47:12.837Z,0
2022-10-01T19:48:52.618Z,0
2022-10-01T19:50:32.383Z,0
2022-10-01T19:52:12.148Z,0
2022-10-01T19:53:51.941Z,0
2022-10-01T19:55:31.669Z,0
2022-10-01T19:57:11.449Z,0
2022-10-01T19:58:51.220Z,0
2022-10-01T20:00:30.979Z,0
2022-10-01T20:02:10.749Z,0
2022-10-01T20:03:50.529Z,0
2022-10-01T20:05:30.284Z,0
2022-10-01T20:07:10.051Z,0
2022-10-01T20:08:49.814Z,0
2022-10-01T20:10:29.601Z,0
2022-10-01T20:12:09.347Z,0
2022-10-01T20:13:49.118Z,0
2022-10-01T20:15:28.899Z,0
2022-10-01T20:17:08.661Z,0
2022-10-01T20:18:48.417Z,0
2022-10-01T20:20:28.271Z,0
2022-10-01T20:22:07.966Z,0
2022-10-01T20:23:47.730Z,0
2022-10-01T20:25:27.485Z,0
2022-10-01T20:27:07.252Z,0
2022-10-01T20:28:47.024Z,0
2022-10-01T20:32:06.562Z,0
2022-10-01T20:33:46.359Z,0
2022-10-01T20:35:26.102Z,0
2022-10-01T20:37:05.876Z,0
2022-10-01T20:38:45.634Z,0
2022-10-01T20:42:05.167Z,0
2022-10-01T20:43:44.938Z,0
2022-10-01T20:45:24.703Z,0
2022-10-01T20:47:04.473Z,0
2022-10-01T20:48:44.230Z,0
2022-10-01T20:50:24.014Z,0
2022-10-01T20:52:03.771Z,0
2022-10-01T20:53:43.545Z,0
2022-10-01T20:55:23.305Z,0
2022-10-01T20:57:03.068Z,0
2022-10-01T20:58:42.835Z,0
2022-10-01T21:00:22.598Z,0
2022-10-01T21:02:02.370Z,0
2022-10-01T21:03:42.156Z,0
2022-10-01T21:05:21.909Z,0
2022-10-01T21:07:01.679Z,0
2022-10-01T21:08:41.468Z,0
2022-10-01T21:10:21.216Z,0
2022-10-01T21:12:00.989Z,0
2022-10-01T21:13:40.747Z,0
2022-10-01T21:15:20.515Z,0
2022-10-01T21:17:00.318Z,0
2022-10-01T21:18:40.049Z,0
2022-10-01T21:20:19.837Z,0
2022-10-01T21:21:59.578Z,0
2022-10-01T21:23:39.354Z,0
2022-10-01T21:25:19.115Z,0
2022-10-01T21:26:58.884Z,0
2022-10-01T21:28:38.665Z,0
2022-10-01T21:30:18.460Z,0
2022-10-01T21:31:58.253Z,0
2022-10-01T21:33:37.954Z,0
2022-10-01T21:35:17.762Z,0
2022-10-01T21:36:57.544Z,0
2022-10-01T21:38:37.252Z,0
2022-10-01T21:40:17.062Z,0
2022-10-01T21:41:56.799Z,0
2022-10-01T21:43:36.565Z,0
2022-10-01T21:45:16.331Z,0
2022-10-01T21:46:56.197Z,0
2022-10-01T21:48:35.876Z,0
2022-10-01T21:50:15.631Z,0
2022-10-01T21:51:55.388Z,0
2022-10-01T21:53:35.164Z,0
2022-10-01T21:55:14.925Z,0
2022-10-01T21:56:54.699Z,0
2022-10-01T21:58:34.457Z,0
2022-10-01T22:00:14.277Z,0
2022-10-01T22:01:54.005Z,0
2022-10-01T22:03:33.792Z,0
2022-10-01T22:05:13.536Z,0
2022-10-01T22:06:53.312Z,0
2022-10-01T22:08:33.079Z,0
2022-10-01T22:10:12.831Z,0
2022-10-01T22:11:52.601Z,0
2022-10-01T22:13:32.377Z,0
2022-10-01T22:15:12.137Z,0
2022-10-01T22:16:51.896Z,0
2022-10-01T22:18:31.672Z,0
2022-10-01T22:20:11.433Z,0
2022-10-01T22:21:51.209Z,0
2022-10-01T22:23:30.975Z,0
2022-10-01T22:25:10.754Z,0
2022-10-01T22:26:50.510Z,0
2022-10-01T22:28:30.276Z,0
2022-10-01T22:30:10.047Z,0
2022-10-01T22:31:49.806Z,0
2022-10-01T22:33:29.579Z,0
2022-10-01T22:35:09.358Z,0
2022-10-01T22:36:49.114Z,0
2022-10-01T22:38:28.874Z,0
2022-10-01T22:40:08.651Z,0
2022-10-01T22:41:48.416Z,0
2022-10-01T22:43:28.188Z,0
2022-10-01T22:45:07.957Z,0
2022-10-01T22:46:47.721Z,0
2022-10-01T22:48:27.477Z,0
2022-10-01T22:50:07.257Z,0
2022-10-01T22:51:47.015Z,0
2022-10-01T22:53:26.856Z,0
2022-10-01T22:55:06.562Z,0
2022-10-01T22:56:46.317Z,0
2022-10-01T22:58:26.138Z,0
2022-10-01T23:00:05.845Z,0
2022-10-01T23:01:45.613Z,0
2022-10-01T23:03:25.398Z,0
2022-10-01T23:05:05.167Z,0
2022-10-01T23:06:44.924Z,0
2022-10-01T23:08:24.717Z,0
2022-10-01T23:10:04.453Z,0
2022-10-01T23:11:44.219Z,0
2022-10-01T23:13:23.987Z,0
2022-10-01T23:15:03.754Z,0
2022-10-01T23:16:43.537Z,0
2022-10-01T23:18:23.293Z,0
2022-10-01T23:20:03.086Z,0
2022-10-01T23:21:42.840Z,0
2022-10-01T23:23:22.592Z,0
2022-10-01T23:25:02.372Z,0
2022-10-01T23:26:42.140Z,0
2022-10-01T23:28:21.906Z,0
2022-10-01T23:30:01.668Z,0
2022-10-01T23:31:41.439Z,0
2022-10-01T23:33:21.203Z,0
2022-10-01T23:35:00.959Z,0
2022-10-01T23:36:40.733Z,0
2022-10-01T23:38:20.505Z,0
2022-10-01T23:40:00.272Z,0
2022-10-01T23:41:40.043Z,0
2022-10-01T23:43:19.818Z,0
2022-10-01T23:44:59.566Z,0
2022-10-01T23:46:39.336Z,0
2022-10-01T23:48:19.107Z,0
2022-10-01T23:49:58.871Z,0
2022-10-01T23:51:38.636Z,0
2022-10-01T23:53:18.407Z,0
2022-10-01T23:54:58.181Z,0
2022-10-01T23:56:37.937Z,0
2022-10-01T23:58:17.712Z,0
2022-10-01T23:59:57.481Z,0
